sensor_id;sensor_type;location;lat;lon;timestamp;pressure;altitude;pressure_sealevel;temperature
67966;BMP280;54749;47.850;9.002;2023-03-19T00:00:43;95636.59;;;8.74
67966;BMP280;54749;47.850;9.002;2023-03-19T00:03:31;95644.50;;;8.81
67966;BMP280;54749;47.850;9.002;2023-03-19T00:05:58;95644.16;;;8.85
67966;BMP280;54749;47.850;9.002;2023-03-19T00:08:26;95646.34;;;8.90
67966;BMP280;54749;47.850;9.002;2023-03-19T00:10:53;95644.16;;;8.85
67966;BMP280;54749;47.850;9.002;2023-03-19T00:13:20;95649.66;;;8.79
67966;BMP280;54749;47.850;9.002;2023-03-19T00:15:47;95641.19;;;8.70
67966;BMP280;54749;47.850;9.002;2023-03-19T00:18:14;95646.09;;;8.71
67966;BMP280;54749;47.850;9.002;2023-03-19T00:20:42;95636.47;;;8.76
67966;BMP280;54749;47.850;9.002;2023-03-19T00:23:09;95648.41;;;8.85
67966;BMP280;54749;47.850;9.002;2023-03-19T00:25:36;95643.03;;;8.89
67966;BMP280;54749;47.850;9.002;2023-03-19T00:28:03;95638.44;;;8.94
67966;BMP280;54749;47.850;9.002;2023-03-19T00:30:30;95649.69;;;8.90
67966;BMP280;54749;47.850;9.002;2023-03-19T00:32:57;95647.03;;;8.81
67966;BMP280;54749;47.850;9.002;2023-03-19T00:35:24;95655.84;;;8.75
67966;BMP280;54749;47.850;9.002;2023-03-19T00:37:51;95654.34;;;8.73
67966;BMP280;54749;47.850;9.002;2023-03-19T00:40:18;95658.56;;;8.73
67966;BMP280;54749;47.850;9.002;2023-03-19T00:42:45;95659.59;;;8.70
67966;BMP280;54749;47.850;9.002;2023-03-19T00:45:12;95667.41;;;8.78
67966;BMP280;54749;47.850;9.002;2023-03-19T00:47:39;95671.88;;;8.85
67966;BMP280;54749;47.850;9.002;2023-03-19T00:50:08;95663.88;;;8.91
67966;BMP280;54749;47.850;9.002;2023-03-19T00:52:35;95658.38;;;8.97
67966;BMP280;54749;47.850;9.002;2023-03-19T00:55:02;95664.13;;;8.99
67966;BMP280;54749;47.850;9.002;2023-03-19T00:57:29;95668.25;;;9.00
67966;BMP280;54749;47.850;9.002;2023-03-19T00:59:56;95663.22;;;9.00
67966;BMP280;54749;47.850;9.002;2023-03-19T01:02:23;95676.28;;;9.05
67966;BMP280;54749;47.850;9.002;2023-03-19T01:04:51;95665.06;;;9.09
67966;BMP280;54749;47.850;9.002;2023-03-19T01:07:18;95681.75;;;9.09
67966;BMP280;54749;47.850;9.002;2023-03-19T01:09:45;95689.78;;;9.04
67966;BMP280;54749;47.850;9.002;2023-03-19T01:12:12;95679.25;;;8.99
67966;BMP280;54749;47.850;9.002;2023-03-19T01:14:39;95688.63;;;8.97
67966;BMP280;54749;47.850;9.002;2023-03-19T01:17:07;95692.75;;;8.87
67966;BMP280;54749;47.850;9.002;2023-03-19T01:19:35;95698.78;;;8.85
67966;BMP280;54749;47.850;9.002;2023-03-19T01:22:02;95700.06;;;8.90
67966;BMP280;54749;47.850;9.002;2023-03-19T01:24:31;95695.50;;;8.95
67966;BMP280;54749;47.850;9.002;2023-03-19T01:26:59;95709.47;;;8.99
67966;BMP280;54749;47.850;9.002;2023-03-19T01:29:30;95698.69;;;8.97
67966;BMP280;54749;47.850;9.002;2023-03-19T01:32:04;95696.41;;;8.94
67966;BMP280;54749;47.850;9.002;2023-03-19T01:34:52;95697.78;;;8.87
67966;BMP280;54749;47.850;9.002;2023-03-19T01:37:19;95704.66;;;8.85
67966;BMP280;54749;47.850;9.002;2023-03-19T01:39:46;95700.41;;;8.86
67966;BMP280;54749;47.850;9.002;2023-03-19T01:42:14;95701.88;;;8.88
67966;BMP280;54749;47.850;9.002;2023-03-19T01:45:33;95702.25;;;8.94
67966;BMP280;54749;47.850;9.002;2023-03-19T01:48:27;95708.09;;;8.95
67966;BMP280;54749;47.850;9.002;2023-03-19T01:51:02;95704.41;;;8.88
67966;BMP280;54749;47.850;9.002;2023-03-19T01:53:57;95717.44;;;8.72
67966;BMP280;54749;47.850;9.002;2023-03-19T01:56:50;95704.59;;;8.64
67966;BMP280;54749;47.850;9.002;2023-03-19T01:59:34;95720.38;;;8.66
67966;BMP280;54749;47.850;9.002;2023-03-19T02:02:29;95719.69;;;8.64
67966;BMP280;54749;47.850;9.002;2023-03-19T02:05:09;95713.63;;;8.66
67966;BMP280;54749;47.850;9.002;2023-03-19T02:07:38;95718.34;;;8.71
67966;BMP280;54749;47.850;9.002;2023-03-19T02:10:10;95715.81;;;8.71
67966;BMP280;54749;47.850;9.002;2023-03-19T02:12:37;95717.66;;;8.69
67966;BMP280;54749;47.850;9.002;2023-03-19T02:15:05;95718.13;;;8.74
67966;BMP280;54749;47.850;9.002;2023-03-19T02:17:33;95726.03;;;8.80
67966;BMP280;54749;47.850;9.002;2023-03-19T02:20:05;95733.50;;;8.81
67966;BMP280;54749;47.850;9.002;2023-03-19T02:22:35;95721.72;;;8.82
67966;BMP280;54749;47.850;9.002;2023-03-19T02:25:10;95730.28;;;8.79
67966;BMP280;54749;47.850;9.002;2023-03-19T02:27:40;95725.31;;;8.67
67966;BMP280;54749;47.850;9.002;2023-03-19T02:32:49;95716.38;;;8.40
67966;BMP280;54749;47.850;9.002;2023-03-19T02:35:16;95723.47;;;8.36
67966;BMP280;54749;47.850;9.002;2023-03-19T02:37:44;95722.78;;;8.34
67966;BMP280;54749;47.850;9.002;2023-03-19T02:40:25;95727.41;;;8.40
67966;BMP280;54749;47.850;9.002;2023-03-19T02:42:53;95725.22;;;8.46
67966;BMP280;54749;47.850;9.002;2023-03-19T02:45:27;95724.91;;;8.50
67966;BMP280;54749;47.850;9.002;2023-03-19T02:47:55;95734.97;;;8.50
67966;BMP280;54749;47.850;9.002;2023-03-19T02:50:22;95737.50;;;8.50
67966;BMP280;54749;47.850;9.002;2023-03-19T02:52:49;95734.31;;;8.48
67966;BMP280;54749;47.850;9.002;2023-03-19T02:55:16;95739.00;;;8.53
67966;BMP280;54749;47.850;9.002;2023-03-19T02:57:44;95738.41;;;8.49
67966;BMP280;54749;47.850;9.002;2023-03-19T03:00:12;95739.34;;;8.48
67966;BMP280;54749;47.850;9.002;2023-03-19T03:02:39;95739.34;;;8.48
67966;BMP280;54749;47.850;9.002;2023-03-19T03:05:08;95730.91;;;8.37
67966;BMP280;54749;47.850;9.002;2023-03-19T03:07:35;95731.56;;;8.28
67966;BMP280;54749;47.850;9.002;2023-03-19T03:10:03;95749.50;;;8.24
67966;BMP280;54749;47.850;9.002;2023-03-19T03:12:30;95737.13;;;8.21
67966;BMP280;54749;47.850;9.002;2023-03-19T03:14:58;95734.81;;;8.18
67966;BMP280;54749;47.850;9.002;2023-03-19T03:17:25;95737.13;;;8.21
67966;BMP280;54749;47.850;9.002;2023-03-19T03:19:52;95741.84;;;8.25
67966;BMP280;54749;47.850;9.002;2023-03-19T03:22:19;95749.28;;;8.27
67966;BMP280;54749;47.850;9.002;2023-03-19T03:24:47;95736.69;;;8.27
67966;BMP280;54749;47.850;9.002;2023-03-19T03:27:14;95743.16;;;8.31
67966;BMP280;54749;47.850;9.002;2023-03-19T03:29:41;95755.50;;;8.34
67966;BMP280;54749;47.850;9.002;2023-03-19T03:32:08;95750.38;;;8.35
67966;BMP280;54749;47.850;9.002;2023-03-19T03:34:36;95749.44;;;8.36
67966;BMP280;54749;47.850;9.002;2023-03-19T03:37:03;95755.50;;;8.34
67966;BMP280;54749;47.850;9.002;2023-03-19T03:39:30;95759.03;;;8.31
67966;BMP280;54749;47.850;9.002;2023-03-19T03:41:57;95756.72;;;8.28
67966;BMP280;54749;47.850;9.002;2023-03-19T03:44:25;95766.81;;;8.28
67966;BMP280;54749;47.850;9.002;2023-03-19T03:46:53;95767.50;;;8.30
67966;BMP280;54749;47.850;9.002;2023-03-19T03:49:20;95774.25;;;8.30
67966;BMP280;54749;47.850;9.002;2023-03-19T03:51:47;95773.22;;;8.32
67966;BMP280;54749;47.850;9.002;2023-03-19T03:54:15;95774.03;;;8.33
67966;BMP280;54749;47.850;9.002;2023-03-19T03:56:42;95783.44;;;8.31
67966;BMP280;54749;47.850;9.002;2023-03-19T03:59:09;95786.13;;;8.28
67966;BMP280;54749;47.850;9.002;2023-03-19T04:01:36;95775.16;;;8.29
67966;BMP280;54749;47.850;9.002;2023-03-19T04:04:04;95785.94;;;8.31
67966;BMP280;54749;47.850;9.002;2023-03-19T04:06:31;95804.03;;;8.36
67966;BMP280;54749;47.850;9.002;2023-03-19T04:09:16;95790.53;;;8.37
67966;BMP280;54749;47.850;9.002;2023-03-19T04:11:44;95803.84;;;8.39
67966;BMP280;54749;47.850;9.002;2023-03-19T04:14:11;95800.50;;;8.38
67966;BMP280;54749;47.850;9.002;2023-03-19T04:16:39;95804.84;;;8.36
67966;BMP280;54749;47.850;9.002;2023-03-19T04:19:06;95799.00;;;8.36
67966;BMP280;54749;47.850;9.002;2023-03-19T04:21:33;95812.28;;;8.38
67966;BMP280;54749;47.850;9.002;2023-03-19T04:24:00;95800.41;;;8.40
67966;BMP280;54749;47.850;9.002;2023-03-19T04:26:28;95803.63;;;8.41
67966;BMP280;54749;47.850;9.002;2023-03-19T04:28:56;95811.38;;;8.39
67966;BMP280;54749;47.850;9.002;2023-03-19T04:31:24;95813.00;;;8.40
67966;BMP280;54749;47.850;9.002;2023-03-19T04:33:51;95823.75;;;8.41
67966;BMP280;54749;47.850;9.002;2023-03-19T04:36:19;95805.44;;;8.40
67966;BMP280;54749;47.850;9.002;2023-03-19T04:38:47;95814.59;;;8.40
67966;BMP280;54749;47.850;9.002;2023-03-19T04:41:14;95801.19;;;8.40
67966;BMP280;54749;47.850;9.002;2023-03-19T04:43:53;95812.28;;;8.38
67966;BMP280;54749;47.850;9.002;2023-03-19T04:46:20;95803.56;;;8.31
67966;BMP280;54749;47.850;9.002;2023-03-19T04:48:48;95814.13;;;8.23
67966;BMP280;54749;47.850;9.002;2023-03-19T04:51:16;95820.19;;;8.21
67966;BMP280;54749;47.850;9.002;2023-03-19T04:53:44;95820.38;;;8.18
67966;BMP280;54749;47.850;9.002;2023-03-19T04:56:12;95832.28;;;8.16
67966;BMP280;54749;47.850;9.002;2023-03-19T04:58:44;95837.91;;;8.20
67966;BMP280;54749;47.850;9.002;2023-03-19T05:01:11;95829.06;;;8.26
67966;BMP280;54749;47.850;9.002;2023-03-19T05:04:05;95824.38;;;8.33
67966;BMP280;54749;47.850;9.002;2023-03-19T05:06:35;95836.06;;;8.34
67966;BMP280;54749;47.850;9.002;2023-03-19T05:09:05;95844.03;;;8.28
67966;BMP280;54749;47.850;9.002;2023-03-19T05:11:33;95834.88;;;8.27
67966;BMP280;54749;47.850;9.002;2023-03-19T05:14:08;95837.81;;;8.21
67966;BMP280;54749;47.850;9.002;2023-03-19T05:16:47;95836.16;;;8.09
67966;BMP280;54749;47.850;9.002;2023-03-19T05:19:15;95834.72;;;8.05
67966;BMP280;54749;47.850;9.002;2023-03-19T05:21:43;95833.13;;;8.05
67966;BMP280;54749;47.850;9.002;2023-03-19T05:24:10;95839.66;;;8.07
67966;BMP280;54749;47.850;9.002;2023-03-19T05:26:38;95822.63;;;8.10
67966;BMP280;54749;47.850;9.002;2023-03-19T05:29:27;95824.66;;;8.05
67966;BMP280;54749;47.850;9.002;2023-03-19T05:32:30;95827.69;;;7.98
67966;BMP280;54749;47.850;9.002;2023-03-19T05:35:00;95817.41;;;7.89
67966;BMP280;54749;47.850;9.002;2023-03-19T05:37:27;95828.69;;;7.84
67966;BMP280;54749;47.850;9.002;2023-03-19T05:39:57;95822.88;;;7.83
67966;BMP280;54749;47.850;9.002;2023-03-19T05:42:24;95826.66;;;7.88
67966;BMP280;54749;47.850;9.002;2023-03-19T05:44:53;95824.84;;;7.90
67966;BMP280;54749;47.850;9.002;2023-03-19T05:47:24;95820.41;;;7.94
67966;BMP280;54749;47.850;9.002;2023-03-19T05:49:54;95840.19;;;8.00
67966;BMP280;54749;47.850;9.002;2023-03-19T05:52:22;95834.13;;;8.02
67966;BMP280;54749;47.850;9.002;2023-03-19T05:54:50;95830.63;;;8.05
67966;BMP280;54749;47.850;9.002;2023-03-19T05:57:50;95815.78;;;8.12
67966;BMP280;54749;47.850;9.002;2023-03-19T06:00:22;95830.59;;;8.17
67966;BMP280;54749;47.850;9.002;2023-03-19T06:02:49;95818.81;;;8.17
67966;BMP280;54749;47.850;9.002;2023-03-19T06:05:40;95818.69;;;8.19
67966;BMP280;54749;47.850;9.002;2023-03-19T06:08:19;95822.44;;;8.13
67966;BMP280;54749;47.850;9.002;2023-03-19T06:10:57;95833.63;;;8.09
67966;BMP280;54749;47.850;9.002;2023-03-19T06:13:25;95845.41;;;8.09
67966;BMP280;54749;47.850;9.002;2023-03-19T06:15:57;95850.13;;;8.13
67966;BMP280;54749;47.850;9.002;2023-03-19T06:18:30;95844.47;;;8.22
67966;BMP280;54749;47.850;9.002;2023-03-19T06:20:58;95836.28;;;8.31
67966;BMP280;54749;47.850;9.002;2023-03-19T06:23:26;95845.94;;;8.37
67966;BMP280;54749;47.850;9.002;2023-03-19T06:25:53;95844.63;;;8.43
67966;BMP280;54749;47.850;9.002;2023-03-19T06:28:23;95847.72;;;8.47
67966;BMP280;54749;47.850;9.002;2023-03-19T06:30:53;95849.81;;;8.53
67966;BMP280;54749;47.850;9.002;2023-03-19T06:33:41;95858.66;;;8.58
67966;BMP280;54749;47.850;9.002;2023-03-19T06:36:08;95840.13;;;8.59
67966;BMP280;54749;47.850;9.002;2023-03-19T06:38:35;95838.41;;;8.59
67966;BMP280;54749;47.850;9.002;2023-03-19T06:41:03;95846.63;;;8.61
67966;BMP280;54749;47.850;9.002;2023-03-19T06:43:30;95850.09;;;8.60
67966;BMP280;54749;47.850;9.002;2023-03-19T06:45:58;95847.88;;;8.56
67966;BMP280;54749;47.850;9.002;2023-03-19T06:48:25;95849.50;;;8.57
67966;BMP280;54749;47.850;9.002;2023-03-19T06:50:52;95839.56;;;8.66
67966;BMP280;54749;47.850;9.002;2023-03-19T06:53:19;95848.19;;;8.74
67966;BMP280;54749;47.850;9.002;2023-03-19T06:55:46;95831.53;;;8.84
67966;BMP280;54749;47.850;9.002;2023-03-19T06:58:13;95831.34;;;8.87
67966;BMP280;54749;47.850;9.002;2023-03-19T07:00:40;95849.41;;;8.81
67966;BMP280;54749;47.850;9.002;2023-03-19T07:03:08;95840.13;;;8.82
67966;BMP280;54749;47.850;9.002;2023-03-19T07:05:35;95842.16;;;8.77
67966;BMP280;54749;47.850;9.002;2023-03-19T07:08:03;95836.09;;;8.79
67966;BMP280;54749;47.850;9.002;2023-03-19T07:10:30;95842.06;;;8.78
67966;BMP280;54749;47.850;9.002;2023-03-19T07:12:57;95846.41;;;8.76
67966;BMP280;54749;47.850;9.002;2023-03-19T07:15:24;95844.34;;;8.81
67966;BMP280;54749;47.850;9.002;2023-03-19T07:17:51;95836.47;;;8.86
67966;BMP280;54749;47.850;9.002;2023-03-19T07:20:18;95837.53;;;8.94
67966;BMP280;54749;47.850;9.002;2023-03-19T07:22:45;95843.41;;;9.05
67966;BMP280;54749;47.850;9.002;2023-03-19T07:25:12;95839.00;;;9.19
67966;BMP280;54749;47.850;9.002;2023-03-19T07:27:39;95850.38;;;9.35
67966;BMP280;54749;47.850;9.002;2023-03-19T07:30:07;95849.19;;;9.51
67966;BMP280;54749;47.850;9.002;2023-03-19T07:32:35;95843.28;;;9.74
67966;BMP280;54749;47.850;9.002;2023-03-19T07:35:04;95851.81;;;9.94
67966;BMP280;54749;47.850;9.002;2023-03-19T07:37:31;95855.34;;;10.13
67966;BMP280;54749;47.850;9.002;2023-03-19T07:39:59;95851.56;;;10.29
67966;BMP280;54749;47.850;9.002;2023-03-19T07:42:25;95853.38;;;10.49
67966;BMP280;54749;47.850;9.002;2023-03-19T07:44:53;95861.84;;;10.69
67966;BMP280;54749;47.850;9.002;2023-03-19T07:47:20;95857.75;;;10.88
67966;BMP280;54749;47.850;9.002;2023-03-19T07:49:56;95849.69;;;11.75
67966;BMP280;54749;47.850;9.002;2023-03-19T07:52:24;95837.47;;;12.09
67966;BMP280;54749;47.850;9.002;2023-03-19T07:54:52;95839.53;;;12.24
67966;BMP280;54749;47.850;9.002;2023-03-19T07:57:19;95851.72;;;12.39
67966;BMP280;54749;47.850;9.002;2023-03-19T07:59:46;95852.94;;;12.44
67966;BMP280;54749;47.850;9.002;2023-03-19T08:02:13;95855.09;;;12.49
67966;BMP280;54749;47.850;9.002;2023-03-19T08:04:41;95862.53;;;12.41
67966;BMP280;54749;47.850;9.002;2023-03-19T08:07:08;95856.63;;;12.31
67966;BMP280;54749;47.850;9.002;2023-03-19T08:09:40;95858.31;;;12.22
67966;BMP280;54749;47.850;9.002;2023-03-19T08:12:07;95865.31;;;12.09
67966;BMP280;54749;47.850;9.002;2023-03-19T08:14:34;95863.53;;;12.00
67966;BMP280;54749;47.850;9.002;2023-03-19T08:17:01;95854.34;;;11.99
67966;BMP280;54749;47.850;9.002;2023-03-19T08:19:29;95863.81;;;11.97
67966;BMP280;54749;47.850;9.002;2023-03-19T08:21:56;95861.81;;;12.01
67966;BMP280;54749;47.850;9.002;2023-03-19T08:24:23;95864.28;;;12.11
67966;BMP280;54749;47.850;9.002;2023-03-19T08:26:50;95874.88;;;12.25
67966;BMP280;54749;47.850;9.002;2023-03-19T08:29:18;95863.88;;;12.45
67966;BMP280;54749;47.850;9.002;2023-03-19T08:31:45;95867.44;;;12.62
67966;BMP280;54749;47.850;9.002;2023-03-19T08:34:12;95876.03;;;12.80
67966;BMP280;54749;47.850;9.002;2023-03-19T08:36:39;95876.06;;;13.08
67966;BMP280;54749;47.850;9.002;2023-03-19T08:39:06;95867.03;;;13.33
67966;BMP280;54749;47.850;9.002;2023-03-19T08:41:33;95879.41;;;13.64
67966;BMP280;54749;47.850;9.002;2023-03-19T08:44:01;95873.38;;;14.02
67966;BMP280;54749;47.850;9.002;2023-03-19T08:46:28;95859.22;;;15.89
67966;BMP280;54749;47.850;9.002;2023-03-19T08:48:55;95846.81;;;17.17
67966;BMP280;54749;47.850;9.002;2023-03-19T08:51:22;95840.97;;;17.78
67966;BMP280;54749;47.850;9.002;2023-03-19T08:53:52;95838.44;;;17.86
67966;BMP280;54749;47.850;9.002;2023-03-19T08:56:19;95847.16;;;17.45
67966;BMP280;54749;47.850;9.002;2023-03-19T08:58:46;95849.38;;;17.32
67966;BMP280;54749;47.850;9.002;2023-03-19T09:01:14;95855.00;;;17.59
67966;BMP280;54749;47.850;9.002;2023-03-19T09:03:42;95859.97;;;17.60
67966;BMP280;54749;47.850;9.002;2023-03-19T09:06:11;95859.03;;;18.00
67966;BMP280;54749;47.850;9.002;2023-03-19T09:08:39;95848.09;;;18.90
67966;BMP280;54749;47.850;9.002;2023-03-19T09:11:06;95845.84;;;20.04
67966;BMP280;54749;47.850;9.002;2023-03-19T09:13:34;95814.31;;;22.05
67966;BMP280;54749;47.850;9.002;2023-03-19T09:16:01;95824.19;;;22.88
67966;BMP280;54749;47.850;9.002;2023-03-19T09:18:29;95836.88;;;22.29
67966;BMP280;54749;47.850;9.002;2023-03-19T09:20:57;95843.97;;;21.19
67966;BMP280;54749;47.850;9.002;2023-03-19T09:23:24;95864.66;;;20.69
67966;BMP280;54749;47.850;9.002;2023-03-19T09:25:51;95862.16;;;20.33
67966;BMP280;54749;47.850;9.002;2023-03-19T09:28:18;95872.41;;;19.75
67966;BMP280;54749;47.850;9.002;2023-03-19T09:30:46;95889.84;;;19.58
67966;BMP280;54749;47.850;9.002;2023-03-19T09:33:14;95858.69;;;20.40
67966;BMP280;54749;47.850;9.002;2023-03-19T09:35:42;95857.56;;;21.89
67966;BMP280;54749;47.850;9.002;2023-03-19T09:38:09;95849.00;;;22.29
67966;BMP280;54749;47.850;9.002;2023-03-19T09:40:45;95839.03;;;24.09
67966;BMP280;54749;47.850;9.002;2023-03-19T09:46:15;95830.72;;;27.16
67966;BMP280;54749;47.850;9.002;2023-03-19T09:48:57;95831.84;;;26.85
67966;BMP280;54749;47.850;9.002;2023-03-19T09:51:35;95824.56;;;27.28
67966;BMP280;54749;47.850;9.002;2023-03-19T09:57:01;95799.47;;;28.20
67966;BMP280;54749;47.850;9.002;2023-03-19T09:59:28;95807.75;;;28.39
67966;BMP280;54749;47.850;9.002;2023-03-19T10:01:56;95821.91;;;28.43
67966;BMP280;54749;47.850;9.002;2023-03-19T10:07:23;95820.88;;;27.93
67966;BMP280;54749;47.850;9.002;2023-03-19T10:10:11;95810.59;;;28.38
67966;BMP280;54749;47.850;9.002;2023-03-19T10:13:34;95814.78;;;28.39
67966;BMP280;54749;47.850;9.002;2023-03-19T10:15:41;95801.22;;;27.97
67966;BMP280;54749;47.850;9.002;2023-03-19T10:18:15;95817.78;;;26.34
67966;BMP280;54749;47.850;9.002;2023-03-19T10:23:36;95816.41;;;25.77
67966;BMP280;54749;47.850;9.002;2023-03-19T10:26:10;95806.75;;;26.44
67966;BMP280;54749;47.850;9.002;2023-03-19T10:28:40;95802.94;;;27.63
67966;BMP280;54749;47.850;9.002;2023-03-19T10:31:41;95798.53;;;27.92
67966;BMP280;54749;47.850;9.002;2023-03-19T10:34:31;95800.19;;;29.59
67966;BMP280;54749;47.850;9.002;2023-03-19T10:39:41;95797.56;;;27.76
67966;BMP280;54749;47.850;9.002;2023-03-19T10:42:34;95811.03;;;26.09
67966;BMP280;54749;47.850;9.002;2023-03-19T10:45:09;95816.78;;;25.87
67966;BMP280;54749;47.850;9.002;2023-03-19T10:47:42;95820.03;;;25.40
67966;BMP280;54749;47.850;9.002;2023-03-19T10:50:21;95839.16;;;23.70
67966;BMP280;54749;47.850;9.002;2023-03-19T10:52:50;95836.09;;;22.89
67966;BMP280;54749;47.850;9.002;2023-03-19T10:55:24;95830.66;;;22.78
67966;BMP280;54749;47.850;9.002;2023-03-19T10:58:00;95840.31;;;22.10
67966;BMP280;54749;47.850;9.002;2023-03-19T11:00:30;95843.94;;;22.75
67966;BMP280;54749;47.850;9.002;2023-03-19T11:03:00;95828.84;;;23.63
67966;BMP280;54749;47.850;9.002;2023-03-19T11:05:33;95841.47;;;23.33
67966;BMP280;54749;47.850;9.002;2023-03-19T11:08:07;95823.91;;;24.00
67966;BMP280;54749;47.850;9.002;2023-03-19T11:11:00;95826.25;;;24.64
67966;BMP280;54749;47.850;9.002;2023-03-19T11:13:27;95813.66;;;26.02
67966;BMP280;54749;47.850;9.002;2023-03-19T11:15:58;95810.06;;;26.51
67966;BMP280;54749;47.850;9.002;2023-03-19T11:18:29;95828.06;;;25.26
67966;BMP280;54749;47.850;9.002;2023-03-19T11:20:59;95819.63;;;24.87
67966;BMP280;54749;47.850;9.002;2023-03-19T11:23:29;95825.84;;;24.80
67966;BMP280;54749;47.850;9.002;2023-03-19T11:25:59;95820.06;;;24.78
67966;BMP280;54749;47.850;9.002;2023-03-19T11:28:28;95823.50;;;24.34
67966;BMP280;54749;47.850;9.002;2023-03-19T11:31:12;95821.31;;;23.81
67966;BMP280;54749;47.850;9.002;2023-03-19T11:39:28;95832.50;;;22.24
67966;BMP280;54749;47.850;9.002;2023-03-19T11:45:08;95841.28;;;21.27
67966;BMP280;54749;47.850;9.002;2023-03-19T11:53:27;95818.03;;;21.55
67966;BMP280;54749;47.850;9.002;2023-03-19T12:02:12;95814.28;;;21.37
67966;BMP280;54749;47.850;9.002;2023-03-19T12:05:01;95818.88;;;21.21
67966;BMP280;54749;47.850;9.002;2023-03-19T12:10:26;95799.09;;;21.62
67966;BMP280;54749;47.850;9.002;2023-03-19T12:15:38;95802.81;;;21.80
67966;BMP280;54749;47.850;9.002;2023-03-19T12:18:23;95801.75;;;21.69
67966;BMP280;54749;47.850;9.002;2023-03-19T12:26:24;95790.69;;;21.13
67966;BMP280;54749;47.850;9.002;2023-03-19T12:34:33;95799.41;;;20.00
67966;BMP280;54749;47.850;9.002;2023-03-19T12:37:15;95802.13;;;19.84
67966;BMP280;54749;47.850;9.002;2023-03-19T12:42:36;95786.81;;;19.76
67966;BMP280;54749;47.850;9.002;2023-03-19T12:45:31;95794.56;;;19.68
67966;BMP280;54749;47.850;9.002;2023-03-19T12:48:08;95790.28;;;19.97
67966;BMP280;54749;47.850;9.002;2023-03-19T12:50:41;95796.94;;;20.20
67966;BMP280;54749;47.850;9.002;2023-03-19T12:53:18;95784.97;;;20.35
67966;BMP280;54749;47.850;9.002;2023-03-19T12:55:52;95781.13;;;20.17
67966;BMP280;54749;47.850;9.002;2023-03-19T13:01:02;95780.94;;;19.24
67966;BMP280;54749;47.850;9.002;2023-03-19T13:04:02;95791.88;;;19.18
67966;BMP280;54749;47.850;9.002;2023-03-19T13:06:38;95783.25;;;18.90
67966;BMP280;54749;47.850;9.002;2023-03-19T13:09:23;95779.28;;;19.09
67966;BMP280;54749;47.850;9.002;2023-03-19T13:11:54;95781.63;;;19.18
67966;BMP280;54749;47.850;9.002;2023-03-19T13:19:47;95792.75;;;18.36
67966;BMP280;54749;47.850;9.002;2023-03-19T13:22:20;95783.75;;;18.40
67966;BMP280;54749;47.850;9.002;2023-03-19T13:24:49;95779.34;;;18.34
67966;BMP280;54749;47.850;9.002;2023-03-19T13:27:21;95788.34;;;18.07
67966;BMP280;54749;47.850;9.002;2023-03-19T13:30:06;95790.28;;;17.97
67966;BMP280;54749;47.850;9.002;2023-03-19T13:32:40;95782.63;;;17.97
67966;BMP280;54749;47.850;9.002;2023-03-19T13:35:26;95784.19;;;18.22
67966;BMP280;54749;47.850;9.002;2023-03-19T13:38:03;95777.53;;;18.42
67966;BMP280;54749;47.850;9.002;2023-03-19T13:40:45;95778.56;;;18.63
67966;BMP280;54749;47.850;9.002;2023-03-19T13:46:09;95777.22;;;18.83
67966;BMP280;54749;47.850;9.002;2023-03-19T13:48:52;95789.44;;;18.65
67966;BMP280;54749;47.850;9.002;2023-03-19T13:54:16;95794.44;;;17.98
67966;BMP280;54749;47.850;9.002;2023-03-19T13:59:29;95789.34;;;17.28
67966;BMP280;54749;47.850;9.002;2023-03-19T14:01:57;95781.34;;;17.08
67966;BMP280;54749;47.850;9.002;2023-03-19T14:04:29;95786.44;;;16.92
67966;BMP280;54749;47.850;9.002;2023-03-19T14:09:45;95779.41;;;16.94
67966;BMP280;54749;47.850;9.002;2023-03-19T14:14:46;95772.41;;;17.27
67966;BMP280;54749;47.850;9.002;2023-03-19T14:17:17;95768.28;;;17.50
67966;BMP280;54749;47.850;9.002;2023-03-19T14:19:45;95764.44;;;17.69
67966;BMP280;54749;47.850;9.002;2023-03-19T14:27:43;95762.81;;;17.99
67966;BMP280;54749;47.850;9.002;2023-03-19T14:30:27;95753.50;;;18.06
67966;BMP280;54749;47.850;9.002;2023-03-19T14:32:56;95762.69;;;17.85
67966;BMP280;54749;47.850;9.002;2023-03-19T14:35:35;95763.63;;;17.76
67966;BMP280;54749;47.850;9.002;2023-03-19T14:38:38;95756.13;;;17.59
67966;BMP280;54749;47.850;9.002;2023-03-19T14:41:14;95762.38;;;17.41
67966;BMP280;54749;47.850;9.002;2023-03-19T14:46:27;95770.09;;;16.78
67966;BMP280;54749;47.850;9.002;2023-03-19T14:52:16;95766.16;;;16.43
67966;BMP280;54749;47.850;9.002;2023-03-19T14:54:58;95773.47;;;16.38
67966;BMP280;54749;47.850;9.002;2023-03-19T14:57:31;95774.88;;;16.32
67966;BMP280;54749;47.850;9.002;2023-03-19T15:00:00;95776.03;;;16.38
67966;BMP280;54749;47.850;9.002;2023-03-19T15:02:49;95768.34;;;16.22
67966;BMP280;54749;47.850;9.002;2023-03-19T15:05:27;95764.16;;;16.21
67966;BMP280;54749;47.850;9.002;2023-03-19T15:08:00;95768.97;;;16.32
67966;BMP280;54749;47.850;9.002;2023-03-19T15:10:33;95768.88;;;16.41
67966;BMP280;54749;47.850;9.002;2023-03-19T15:16:11;95769.44;;;16.68
67966;BMP280;54749;47.850;9.002;2023-03-19T15:18:41;95770.13;;;16.85
67966;BMP280;54749;47.850;9.002;2023-03-19T15:21:09;95784.53;;;16.94
67966;BMP280;54749;47.850;9.002;2023-03-19T15:23:37;95775.13;;;16.95
67966;BMP280;54749;47.850;9.002;2023-03-19T15:26:05;95779.38;;;16.79
67966;BMP280;54749;47.850;9.002;2023-03-19T15:29:04;95781.72;;;16.72
67966;BMP280;54749;47.850;9.002;2023-03-19T15:31:48;95776.06;;;16.46
67966;BMP280;54749;47.850;9.002;2023-03-19T15:34:30;95789.06;;;16.27
67966;BMP280;54749;47.850;9.002;2023-03-19T15:37:07;95796.63;;;16.12
67966;BMP280;54749;47.850;9.002;2023-03-19T15:39:39;95793.13;;;16.13
67966;BMP280;54749;47.850;9.002;2023-03-19T15:42:07;95792.59;;;16.34
67966;BMP280;54749;47.850;9.002;2023-03-19T15:44:41;95786.91;;;16.48
67966;BMP280;54749;47.850;9.002;2023-03-19T15:47:14;95797.59;;;16.43
67966;BMP280;54749;47.850;9.002;2023-03-19T15:49:48;95799.19;;;16.12
67966;BMP280;54749;47.850;9.002;2023-03-19T15:52:17;95801.91;;;15.93
67966;BMP280;54749;47.850;9.002;2023-03-19T15:54:46;95814.50;;;15.70
67966;BMP280;54749;47.850;9.002;2023-03-19T15:57:15;95810.97;;;15.46
67966;BMP280;54749;47.850;9.002;2023-03-19T15:59:43;95827.66;;;15.24
67966;BMP280;54749;47.850;9.002;2023-03-19T16:02:16;95821.41;;;15.18
67966;BMP280;54749;47.850;9.002;2023-03-19T16:04:47;95835.50;;;14.96
67966;BMP280;54749;47.850;9.002;2023-03-19T16:07:40;95839.81;;;14.86
67966;BMP280;54749;47.850;9.002;2023-03-19T16:12:54;95844.09;;;14.59
67966;BMP280;54749;47.850;9.002;2023-03-19T16:15:27;95848.59;;;14.48
67966;BMP280;54749;47.850;9.002;2023-03-19T16:18:08;95850.81;;;14.25